• Join FlightAware (Why Join?)
  • Login
  • US Flag 
02:34AM EDT


 

Airport Tracker/Info


-or-


 

Live Flight TrackerFlight Track Log ✈ UAL5911 ✈ 27-Apr-2013 ✈ KPIA - KORD

Flight Track Log - Related Links

Times and Time Zones

All times are in EDT time to prevent confusion due to time zone crossing. See the UAL5911 flight status page for this flight to view local times or setup timezone preferences in your user account.

Time Position Orientation Groundspeed Altitude Reporting Facility
EDT Latitude Longitude Course Direction KTS MPH feet Rate Location/Type
04:07PM 40.6708 -89.6242 59° Northeast 224 258 4,700  Level Chicago Center
04:08PM 40.7583 -89.6375 353° North 268 308 7,800 2,820 Climbing Chicago Center
04:09PM 40.9616 -89.6221 11° North  Level FlightAware Approximate
04:09PM 40.8358 -89.6278 North 280 322 10,500  Level Chicago Center
04:10PM 41.0386 -89.6000 North  Level FlightAware Approximate
04:10PM 40.9203 -89.6169 North 300 345 12,300  Level Chicago Center
04:11PM 41.1170 -89.5888 North  Level FlightAware Approximate
04:11PM 41.0125 -89.5783 18° North 360 414 13,100  Level Chicago Center
04:12PM 41.0786 -89.4708 51° Northeast 375 432 14,200 900 Climbing Chicago Center
04:13PM 41.1461 -89.3583 51° Northeast 387 445 15,000 360 Climbing Chicago Center
04:14PM 41.2275 -89.2208 52° Northeast 394 453 15,000  Level Chicago Center
04:15PM 41.2853 -89.1194 53° Northeast 386 444 15,000  Level Chicago Center
04:16PM 41.3519 -89.0064 52° Northeast 388 447 15,000 -480 Level Chicago Center
04:17PM 41.4319 -88.8719 52° Northeast 389 448 14,100 -1,440 Descending Chicago Center
04:18PM 41.4958 -88.7608 52° Northeast 380 437 12,100 -1,020 Descending Chicago Center
04:20PM 41.6214 -88.5439 52° Northeast 368 423 11,000 -720 Descending Chicago Center
04:21PM 41.6747 -88.4525 52° Northeast 313 360 10,000 -1,140 Descending Chicago Center
04:22PM 41.7214 -88.3717 52° Northeast 276 318 8,700 -1,320 Descending Chicago Center
04:23PM 41.7906 -88.3297 24° Northeast 282 325 7,300 -1,380 Descending Chicago Center
04:24PM 41.8781 -88.2972 15° North 271 312 5,900 -1,260 Descending Chicago Center
04:25PM 41.9458 -88.2708 16° North 262 302 4,700 -900 Descending Chicago Center
04:26PM 41.9678 -88.1961 68° East 233 268 4,100 -600 Descending Chicago Center
04:27PM 41.9681 -88.1256 90° East 206 237 3,500 -840 Descending Chicago Center
04:28PM 41.9667 -88.0667 92° East 182 209 2,700 -1,020 Descending Chicago TRACON
04:29PM 41.9667 -88.0000 90° East 154 177 1,800 -900 Descending Chicago TRACON